createdAt,value
2018-02-25T00:01:27.217Z,45.90
2018-02-25T00:03:55.594Z,46.10
2018-02-25T00:06:24.177Z,45.80
2018-02-25T00:08:52.710Z,45.70
2018-02-25T00:11:21.884Z,45.80
2018-02-25T00:13:50.261Z,45.80
2018-02-25T00:16:18.905Z,45.70
2018-02-25T00:18:47.301Z,46.50
2018-02-25T00:21:15.966Z,47.00
2018-02-25T00:23:44.378Z,46.50
2018-02-25T00:26:12.762Z,46.70
2018-02-25T00:28:41.163Z,46.60
2018-02-25T00:31:10.306Z,46.80
2018-02-25T00:33:38.734Z,46.80
2018-02-25T00:36:07.118Z,47.20
2018-02-25T00:38:36.261Z,47.00
2018-02-25T00:41:04.662Z,47.00
2018-02-25T00:43:33.046Z,47.20
2018-02-25T00:46:01.540Z,47.00
2018-02-25T00:48:29.918Z,47.60
2018-02-25T00:50:58.353Z,47.50
2018-02-25T00:53:26.725Z,47.40
2018-02-25T00:55:55.105Z,47.40
2018-02-25T00:58:23.514Z,47.80
2018-02-25T01:00:51.894Z,47.80
2018-02-25T01:03:20.282Z,47.80
2018-02-25T01:05:48.658Z,47.70
2018-02-25T01:08:17.414Z,47.80
2018-02-25T01:10:45.788Z,47.90
2018-02-25T01:13:14.168Z,48.00
2018-02-25T01:15:42.568Z,48.30
2018-02-25T01:18:12.466Z,48.10
2018-02-25T01:20:40.864Z,48.20
2018-02-25T01:23:09.238Z,48.10
2018-02-25T01:25:37.903Z,48.40
2018-02-25T01:28:06.278Z,48.50
2018-02-25T01:30:34.654Z,48.50
2018-02-25T01:33:03.059Z,48.70
2018-02-25T01:35:31.437Z,48.50
2018-02-25T01:37:59.835Z,48.70
2018-02-25T01:40:28.218Z,48.60
2018-02-25T01:42:56.780Z,48.90
2018-02-25T01:45:25.163Z,49.10
2018-02-25T01:47:53.549Z,49.40
2018-02-25T01:50:21.943Z,49.20
2018-02-25T01:52:50.314Z,49.50
2018-02-25T01:55:19.506Z,49.30
2018-02-25T01:57:47.877Z,49.20
2018-02-25T02:00:16.270Z,49.30
2018-02-25T02:02:44.721Z,49.30
2018-02-25T02:05:13.142Z,49.10
2018-02-25T02:07:42.310Z,49.70
2018-02-25T02:10:10.685Z,49.70
2018-02-25T02:12:39.083Z,49.80
2018-02-25T02:15:07.458Z,49.70
2018-02-25T02:17:36.117Z,49.90
2018-02-25T02:20:04.491Z,49.90
2018-02-25T02:22:32.863Z,49.90
2018-02-25T02:25:01.267Z,49.70
2018-02-25T02:27:29.653Z,49.70
2018-02-25T02:29:58.059Z,50.40
2018-02-25T02:32:27.210Z,50.60
2018-02-25T02:34:55.637Z,50.40
2018-02-25T02:37:24.780Z,50.30
2018-02-25T02:39:53.162Z,50.30
2018-02-25T02:42:21.562Z,50.20
2018-02-25T02:44:49.935Z,50.10
2018-02-25T02:47:18.323Z,50.50
2018-02-25T02:49:46.698Z,51.30
2018-02-25T02:52:15.255Z,50.80
2018-02-25T02:54:43.630Z,50.60
2018-02-25T02:57:12.003Z,50.90
2018-02-25T02:59:40.398Z,50.90
2018-02-25T03:02:08.949Z,50.80
2018-02-25T03:04:37.355Z,50.90
2018-02-25T03:07:05.755Z,50.90
2018-02-25T03:09:34.345Z,51.10
2018-02-25T03:12:02.717Z,51.10
2018-02-25T03:14:31.093Z,51.40
2018-02-25T03:16:59.495Z,51.20
2018-02-25T03:19:28.644Z,51.10
2018-02-25T03:21:57.043Z,51.20
2018-02-25T03:24:25.417Z,51.50
2018-02-25T03:26:54.083Z,51.40
2018-02-25T03:29:22.470Z,51.50
2018-02-25T03:31:50.852Z,51.70
2018-02-25T03:34:19.264Z,51.50
2018-02-25T03:36:47.642Z,51.40
2018-02-25T03:39:16.051Z,51.70
2018-02-25T03:41:44.422Z,51.90
2018-02-25T03:44:13.599Z,51.10
2018-02-25T03:46:42.746Z,51.10
2018-02-25T03:49:11.118Z,51.00
2018-02-25T03:51:39.515Z,51.30
2018-02-25T03:54:07.891Z,51.10
2018-02-25T03:56:36.315Z,51.40
2018-02-25T03:59:05.502Z,51.60
2018-02-25T04:01:33.926Z,51.60
2018-02-25T04:04:02.302Z,51.50
2018-02-25T04:06:30.676Z,51.30
2018-02-25T04:08:59.083Z,51.60
2018-02-25T04:11:27.455Z,51.10
2018-02-25T04:13:55.853Z,51.10
2018-02-25T04:16:24.230Z,51.40
2018-02-25T04:18:52.649Z,51.40
2018-02-25T04:21:21.784Z,51.50
2018-02-25T04:23:50.167Z,51.50
2018-02-25T04:26:18.568Z,51.60
2018-02-25T04:28:46.938Z,51.60
2018-02-25T04:31:15.324Z,51.60
2018-02-25T04:33:43.699Z,51.30
2018-02-25T04:36:12.075Z,51.40
2018-02-25T04:38:40.541Z,50.90
2018-02-25T04:41:08.913Z,51.40
2018-02-25T04:43:37.309Z,51.30
2018-02-25T04:46:05.684Z,51.20
2018-02-25T04:48:34.104Z,51.10
2018-02-25T04:51:03.249Z,51.50
2018-02-25T04:53:31.635Z,51.50
2018-02-25T04:56:00.041Z,51.90
2018-02-25T04:58:28.491Z,51.60
2018-02-25T05:00:56.971Z,52.00
2018-02-25T05:03:25.354Z,51.70
2018-02-25T05:05:53.926Z,51.70
2018-02-25T05:08:22.298Z,52.20
2018-02-25T05:10:50.714Z,52.20
2018-02-25T05:13:19.116Z,51.90
2018-02-25T05:15:48.259Z,51.80
2018-02-25T05:18:16.645Z,51.80
2018-02-25T05:20:45.676Z,51.70
2018-02-25T05:23:14.858Z,52.10
2018-02-25T05:25:43.242Z,52.10
2018-02-25T05:28:11.635Z,51.60
2018-02-25T05:30:40.859Z,51.90
2018-02-25T05:33:09.238Z,51.90
2018-02-25T05:35:37.638Z,52.20
2018-02-25T05:38:06.011Z,51.90
2018-02-25T05:40:34.597Z,51.70
2018-02-25T05:43:02.983Z,51.60
2018-02-25T05:45:31.349Z,51.60
2018-02-25T05:47:59.747Z,51.30
2018-02-25T05:50:28.119Z,51.50
2018-02-25T05:52:56.515Z,51.60
2018-02-25T05:55:24.902Z,51.60
2018-02-25T05:57:53.450Z,51.50
2018-02-25T06:00:21.834Z,50.90
2018-02-25T06:02:50.211Z,51.40
2018-02-25T06:05:18.602Z,51.80
2018-02-25T06:07:46.972Z,51.30
2018-02-25T06:10:15.378Z,51.30
2018-02-25T06:12:43.765Z,51.00
2018-02-25T06:15:12.521Z,51.00
2018-02-25T06:17:40.895Z,51.30
2018-02-25T06:20:09.291Z,51.10
2018-02-25T06:22:37.690Z,50.50
2018-02-25T06:25:06.849Z,50.60
2018-02-25T06:27:35.248Z,50.50
2018-02-25T06:30:03.628Z,50.40
2018-02-25T06:32:32.390Z,50.40
2018-02-25T06:35:00.755Z,50.20
2018-02-25T06:37:29.121Z,49.70
2018-02-25T06:39:57.527Z,49.70
2018-02-25T06:42:25.897Z,49.50
2018-02-25T06:44:54.317Z,49.20
2018-02-25T06:47:22.695Z,48.80
2018-02-25T06:49:51.117Z,48.60
2018-02-25T06:52:19.496Z,48.20
2018-02-25T06:54:47.890Z,48.30
2018-02-25T06:57:16.301Z,47.90
2018-02-25T06:59:44.682Z,47.50
2018-02-25T07:02:13.243Z,47.30
2018-02-25T07:04:41.637Z,47.00
2018-02-25T07:07:10.295Z,46.30
2018-02-25T07:09:38.671Z,46.10
2018-02-25T07:12:07.054Z,45.90
2018-02-25T07:14:35.452Z,45.40
2018-02-25T07:17:03.829Z,45.60
2018-02-25T07:19:32.226Z,44.90
2018-02-25T07:22:00.607Z,43.70
2018-02-25T07:24:29.930Z,43.20
2018-02-25T07:26:59.061Z,42.20
2018-02-25T07:29:29.116Z,42.20
2018-02-25T07:31:58.005Z,42.00
2018-02-25T07:34:28.855Z,41.90
2018-02-25T07:36:57.745Z,42.30
2018-02-25T07:39:26.924Z,41.00
2018-02-25T07:41:56.791Z,40.80
2018-02-25T07:44:25.743Z,40.40
2018-02-25T07:46:54.698Z,39.70
2018-02-25T07:49:23.722Z,39.80
2018-02-25T07:51:53.380Z,39.30
2018-02-25T07:54:22.863Z,38.80
2018-02-25T07:56:54.293Z,38.40
2018-02-25T07:59:23.765Z,38.30
2018-02-25T08:01:52.158Z,38.30
2018-02-25T08:04:20.540Z,37.20
2018-02-25T08:06:48.949Z,37.20
2018-02-25T08:09:18.099Z,35.30
2018-02-25T08:11:46.499Z,35.30
2018-02-25T08:14:15.126Z,34.10
2018-02-25T08:16:44.038Z,33.60
2018-02-25T08:19:12.477Z,32.70
2018-02-25T08:21:42.426Z,29.50
2018-02-25T08:24:11.530Z,29.50
2018-02-25T08:26:39.986Z,28.10
2018-02-25T08:29:08.383Z,26.70
2018-02-25T08:31:36.805Z,26.00
2018-02-25T08:34:05.233Z,24.80
2018-02-25T08:36:33.618Z,24.20
2018-02-25T08:39:01.983Z,24.00
2018-02-25T08:41:30.372Z,23.30
2018-02-25T08:43:58.926Z,23.50
2018-02-25T08:46:28.091Z,21.80
2018-02-25T08:48:56.465Z,21.70
2018-02-25T08:51:25.030Z,21.80
2018-02-25T08:53:53.406Z,22.30
2018-02-25T08:56:21.785Z,22.40
2018-02-25T08:58:50.175Z,22.50
2018-02-25T09:01:18.546Z,21.60
2018-02-25T09:03:46.941Z,21.20
2018-02-25T09:06:15.324Z,21.40
2018-02-25T09:08:44.085Z,21.10
2018-02-25T09:11:12.460Z,20.40
2018-02-25T09:13:40.838Z,20.70
2018-02-25T09:16:09.247Z,20.10
2018-02-25T09:18:37.646Z,19.90
2018-02-25T09:21:07.158Z,20.00
2018-02-25T09:23:36.302Z,19.60
2018-02-25T09:26:04.850Z,19.60
2018-02-25T09:28:33.268Z,18.50
2018-02-25T09:31:01.624Z,19.20
2018-02-25T09:33:30.025Z,18.60
2018-02-25T09:35:58.481Z,18.20
2018-02-25T09:38:26.982Z,18.10
2018-02-25T09:40:55.442Z,18.00
2018-02-25T09:43:23.818Z,17.90
2018-02-25T09:45:52.230Z,18.00
2018-02-25T09:48:20.646Z,18.00
2018-02-25T09:50:49.996Z,17.20
2018-02-25T09:53:18.425Z,17.20
2018-02-25T09:55:47.009Z,17.30
2018-02-25T09:58:16.327Z,16.60
2018-02-25T10:00:45.078Z,16.60
2018-02-25T10:03:13.514Z,17.10
2018-02-25T10:05:42.057Z,16.20
2018-02-25T10:08:11.266Z,15.90
2018-02-25T10:10:40.438Z,16.70
2018-02-25T10:13:09.554Z,16.70
2018-02-25T10:15:38.880Z,15.10
2018-02-25T10:18:07.288Z,15.10
2018-02-25T10:20:35.714Z,15.10
2018-02-25T10:23:05.270Z,14.50
2018-02-25T10:25:33.756Z,14.50
2018-02-25T10:28:02.162Z,14.10
2018-02-25T10:30:30.552Z,14.40
2018-02-25T10:32:59.718Z,14.10
2018-02-25T10:35:28.114Z,14.10
2018-02-25T10:37:56.671Z,14.60
2018-02-25T10:40:25.066Z,13.60
2018-02-25T10:42:53.653Z,13.10
2018-02-25T10:45:22.112Z,13.40
2018-02-25T10:47:50.592Z,13.80
2018-02-25T10:50:18.992Z,12.40
2018-02-25T10:52:47.397Z,12.50
2018-02-25T10:55:16.590Z,12.20
2018-02-25T10:57:45.751Z,12.70
2018-02-25T11:00:14.800Z,12.60
2018-02-25T11:02:43.197Z,12.20
2018-02-25T11:05:11.630Z,12.60
2018-02-25T11:07:40.027Z,12.70
2018-02-25T11:10:09.275Z,12.60
2018-02-25T11:12:39.265Z,12.00
2018-02-25T11:15:08.680Z,12.00
2018-02-25T11:17:44.680Z,11.70
2018-02-25T11:20:14.228Z,12.30
2018-02-25T11:22:42.842Z,12.60
2018-02-25T11:25:11.726Z,12.10
2018-02-25T11:27:40.926Z,12.60
2018-02-25T11:30:09.381Z,12.60
2018-02-25T11:32:37.805Z,11.90
2018-02-25T11:35:06.261Z,11.40
2018-02-25T11:37:35.754Z,11.40
2018-02-25T11:40:04.494Z,11.00
2018-02-25T11:42:34.258Z,12.80
2018-02-25T11:45:03.490Z,12.80
2018-02-25T11:47:32.440Z,13.50
2018-02-25T11:50:01.958Z,12.70
2018-02-25T11:52:32.588Z,12.30
2018-02-25T11:55:01.907Z,12.30
2018-02-25T11:57:31.031Z,12.70
2018-02-25T12:00:00.630Z,11.90
2018-02-25T12:02:30.197Z,12.30
2018-02-25T12:04:58.815Z,12.60
2018-02-25T12:07:27.321Z,11.90
2018-02-25T12:09:55.939Z,11.30
2018-02-25T12:12:25.639Z,12.00
2018-02-25T12:14:59.273Z,11.90
2018-02-25T12:17:23.731Z,12.20
2018-02-25T12:19:52.560Z,12.10
2018-02-25T12:22:21.945Z,12.30
2018-02-25T12:24:50.419Z,11.50
2018-02-25T12:27:18.875Z,11.60
2018-02-25T12:29:47.263Z,11.60
2018-02-25T12:32:15.657Z,11.00
2018-02-25T12:34:44.047Z,11.30
2018-02-25T12:37:12.673Z,10.80
2018-02-25T12:39:41.810Z,11.10
2018-02-25T12:42:10.189Z,11.00
2018-02-25T12:44:38.776Z,11.10
2018-02-25T12:47:07.270Z,12.10
2018-02-25T12:49:35.684Z,11.20
2018-02-25T12:52:04.827Z,11.30
2018-02-25T12:54:33.253Z,11.30
2018-02-25T12:57:01.750Z,10.60
2018-02-25T12:59:30.163Z,11.70
2018-02-25T13:01:58.573Z,11.10
2018-02-25T13:04:27.179Z,10.40
2018-02-25T13:06:56.357Z,10.40
2018-02-25T13:09:24.862Z,10.40
2018-02-25T13:11:54.045Z,11.30
2018-02-25T13:14:22.427Z,11.20
2018-02-25T13:16:52.212Z,10.10
2018-02-25T13:19:20.626Z,10.10
2018-02-25T13:21:49.761Z,10.20
2018-02-25T13:24:18.169Z,10.20
2018-02-25T13:26:46.547Z,12.70
2018-02-25T13:29:15.102Z,13.00
2018-02-25T13:31:43.624Z,11.00
2018-02-25T13:34:11.999Z,10.50
2018-02-25T13:36:40.397Z,10.20
2018-02-25T13:39:09.542Z,10.40
2018-02-25T13:41:37.957Z,10.40
2018-02-25T13:44:06.334Z,10.30
2018-02-25T13:46:35.515Z,10.90
2018-02-25T13:49:04.149Z,10.90
2018-02-25T13:51:33.307Z,10.80
2018-02-25T13:54:01.767Z,10.70
2018-02-25T13:56:30.171Z,10.30
2018-02-25T13:58:58.565Z,10.40
2018-02-25T14:01:27.269Z,10.90
2018-02-25T14:03:56.132Z,11.50
2018-02-25T14:06:25.608Z,11.40
2018-02-25T14:08:54.015Z,11.30
2018-02-25T14:11:22.564Z,11.00
2018-02-25T14:13:52.542Z,10.50
2018-02-25T14:16:21.130Z,10.00
2018-02-25T14:18:49.645Z,9.90
2018-02-25T14:21:18.906Z,9.90
2018-02-25T14:23:47.790Z,9.90
2018-02-25T14:26:16.377Z,10.20
2018-02-25T14:28:45.709Z,11.40
2018-02-25T14:31:14.459Z,11.40
2018-02-25T14:33:43.192Z,12.50
2018-02-25T14:36:11.650Z,15.00
2018-02-25T14:38:40.562Z,16.90
2018-02-25T14:41:09.822Z,18.40
2018-02-25T14:43:39.204Z,18.60
2018-02-25T14:46:08.054Z,18.60
2018-02-25T14:48:37.358Z,19.90
2018-02-25T14:51:06.306Z,19.90
2018-02-25T14:53:35.439Z,20.80
2018-02-25T14:56:04.094Z,20.70
2018-02-25T14:58:32.504Z,22.00
2018-02-25T15:01:01.065Z,22.30
2018-02-25T15:03:29.453Z,24.10
2018-02-25T15:05:58.031Z,24.20
2018-02-25T15:08:26.741Z,24.00
2018-02-25T15:10:56.853Z,23.80
2018-02-25T15:13:26.370Z,24.10
2018-02-25T15:15:54.945Z,24.10
2018-02-25T15:18:23.831Z,24.20
2018-02-25T15:20:52.393Z,23.70
2018-02-25T15:23:21.204Z,24.10
2018-02-25T15:25:50.812Z,24.50
2018-02-25T15:28:19.657Z,24.50
2018-02-25T15:30:49.615Z,25.60
2018-02-25T15:33:18.366Z,25.60
2018-02-25T15:35:46.848Z,26.20
2018-02-25T15:38:15.587Z,26.30
2018-02-25T15:40:44.335Z,26.50
2018-02-25T15:43:13.817Z,28.20
2018-02-25T15:45:43.503Z,26.80
2018-02-25T15:48:13.241Z,27.00
2018-02-25T15:50:41.942Z,27.00
2018-02-25T15:53:10.500Z,27.30
2018-02-25T15:55:39.240Z,27.20
2018-02-25T15:58:09.149Z,27.40
2018-02-25T16:00:37.923Z,27.70
2018-02-25T16:03:06.790Z,27.40
2018-02-25T16:05:35.722Z,27.60
2018-02-25T16:08:04.458Z,27.80
2018-02-25T16:10:33.691Z,27.30
2018-02-25T16:13:02.083Z,27.30
2018-02-25T16:15:30.465Z,27.30
2018-02-25T16:17:59.046Z,27.40
2018-02-25T16:20:27.935Z,28.00
2018-02-25T16:22:56.648Z,27.80
2018-02-25T16:25:25.391Z,27.90
2018-02-25T16:27:54.090Z,28.00
2018-02-25T16:30:22.886Z,28.40
2018-02-25T16:32:51.567Z,28.70
2018-02-25T16:35:20.210Z,28.70
2018-02-25T16:37:49.553Z,28.70
2018-02-25T16:40:18.589Z,28.60
2018-02-25T16:42:46.984Z,29.00
2018-02-25T16:45:16.978Z,29.50
2018-02-25T16:47:46.655Z,30.00
2018-02-25T16:50:16.672Z,29.80
2018-02-25T16:52:45.459Z,29.80
2018-02-25T16:55:13.938Z,29.50
2018-02-25T16:57:42.661Z,29.50
2018-02-25T17:00:11.976Z,30.10
2018-02-25T17:02:41.177Z,30.30
2018-02-25T17:05:10.536Z,30.60
2018-02-25T17:07:39.300Z,30.50
2018-02-25T17:10:08.115Z,30.80
2018-02-25T17:12:36.988Z,30.90
2018-02-25T17:15:05.810Z,31.20
2018-02-25T17:17:34.566Z,31.50
2018-02-25T17:20:04.784Z,31.70
2018-02-25T17:22:33.475Z,31.70
2018-02-25T17:25:03.314Z,33.10
2018-02-25T17:27:32.508Z,32.80
2018-02-25T17:30:01.098Z,32.80
2018-02-25T17:32:29.656Z,32.70
2018-02-25T17:34:58.311Z,32.90
2018-02-25T17:37:26.913Z,33.30
2018-02-25T17:39:55.322Z,33.40
2018-02-25T17:42:23.975Z,33.10
2018-02-25T17:44:52.768Z,32.60
2018-02-25T17:47:22.224Z,32.20
2018-02-25T17:49:51.196Z,32.00
2018-02-25T17:52:20.510Z,34.70
2018-02-25T17:54:49.773Z,34.70
2018-02-25T17:57:18.211Z,34.70
2018-02-25T17:59:46.890Z,35.90
2018-02-25T18:02:15.335Z,35.30
2018-02-25T18:04:43.753Z,35.10
2018-02-25T18:07:13.122Z,35.50
2018-02-25T18:09:41.532Z,35.60
2018-02-25T18:12:10.041Z,35.40
2018-02-25T18:14:38.941Z,35.00
2018-02-25T18:17:07.623Z,35.30
2018-02-25T18:19:36.046Z,35.30
2018-02-25T18:22:04.406Z,36.10
2018-02-25T18:24:32.805Z,37.10
2018-02-25T18:27:01.955Z,37.00
2018-02-25T18:29:30.367Z,37.00
2018-02-25T18:31:58.738Z,37.20
2018-02-25T18:34:28.203Z,37.40
2018-02-25T18:36:56.577Z,37.40
2018-02-25T18:39:24.959Z,37.30
2018-02-25T18:41:53.477Z,37.90
2018-02-25T18:44:21.862Z,38.20
2018-02-25T18:46:50.263Z,37.40
2018-02-25T18:49:19.405Z,37.30
2018-02-25T18:51:48.038Z,37.30
2018-02-25T18:54:17.175Z,37.50
2018-02-25T18:56:45.609Z,37.50
2018-02-25T18:59:14.784Z,38.60
2018-02-25T19:01:43.187Z,38.30
2018-02-25T19:04:12.494Z,38.50
2018-02-25T19:06:41.644Z,38.50
2018-02-25T19:09:10.458Z,38.50
2018-02-25T19:11:38.845Z,38.40
2018-02-25T19:14:07.265Z,38.40
2018-02-25T19:16:36.220Z,38.00
2018-02-25T19:19:05.107Z,38.30
2018-02-25T19:21:33.746Z,38.40
2018-02-25T19:24:02.115Z,37.70
2018-02-25T19:26:30.618Z,38.10
2018-02-25T19:28:59.027Z,37.70
2018-02-25T19:31:28.335Z,37.90
2018-02-25T19:33:57.580Z,38.10
2018-02-25T19:36:31.678Z,38.10
2018-02-25T19:39:05.442Z,37.90
2018-02-25T19:41:39.288Z,37.70
2018-02-25T19:44:08.238Z,37.70
2018-02-25T19:46:37.482Z,37.60
2018-02-25T19:49:05.976Z,37.70
2018-02-25T19:51:35.063Z,37.50
2018-02-25T19:54:03.532Z,37.80
2018-02-25T19:56:32.476Z,37.80
2018-02-25T19:59:01.923Z,38.80
2018-02-25T20:01:31.118Z,38.60
2018-02-25T20:03:59.643Z,38.70
2018-02-25T20:06:28.827Z,38.40
2018-02-25T20:08:57.349Z,38.40
2018-02-25T20:11:25.734Z,38.00
2018-02-25T20:13:54.186Z,38.20
2018-02-25T20:16:22.756Z,39.00
2018-02-25T20:18:51.178Z,38.70
2018-02-25T20:21:19.554Z,38.90
2018-02-25T20:23:48.743Z,39.30
2018-02-25T20:26:17.116Z,39.20
2018-02-25T20:28:46.492Z,39.10
2018-02-25T20:31:16.450Z,39.30
2018-02-25T20:33:45.096Z,39.30
2018-02-25T20:36:13.809Z,39.50
2018-02-25T20:38:43.302Z,38.70
2018-02-25T20:41:11.972Z,38.70
2018-02-25T20:43:40.554Z,39.00
2018-02-25T20:46:08.982Z,38.80
2018-02-25T20:48:38.329Z,38.30
2018-02-25T20:51:06.723Z,38.30
2018-02-25T20:53:35.118Z,38.10
2018-02-25T20:56:03.847Z,37.80
2018-02-25T20:58:36.610Z,37.40
2018-02-25T21:01:05.961Z,37.00
2018-02-25T21:03:34.954Z,37.00
2018-02-25T21:06:03.463Z,37.10
2018-02-25T21:08:31.874Z,37.60
2018-02-25T21:11:00.257Z,37.90
2018-02-25T21:13:28.706Z,37.90
2018-02-25T21:15:57.697Z,39.30
2018-02-25T21:18:26.399Z,38.80
2018-02-25T21:20:55.814Z,37.70
2018-02-25T21:23:24.502Z,37.70
2018-02-25T21:25:52.992Z,38.10
2018-02-25T21:28:22.387Z,37.90
2018-02-25T21:30:50.806Z,37.90
2018-02-25T21:33:19.206Z,37.80
2018-02-25T21:35:47.807Z,38.20
2018-02-25T21:38:17.719Z,38.50
2018-02-25T21:40:46.257Z,38.50
2018-02-25T21:43:14.678Z,38.60
2018-02-25T21:45:43.323Z,38.80
2018-02-25T21:48:11.718Z,38.90
2018-02-25T21:50:40.094Z,38.70
2018-02-25T21:53:08.516Z,38.80
2018-02-25T21:55:37.672Z,38.80
2018-02-25T21:58:11.690Z,38.80
2018-02-25T22:00:45.641Z,38.80
2018-02-25T22:06:12.748Z,39.20
2018-02-25T22:08:41.147Z,39.10
2018-02-25T22:11:09.523Z,39.50
2018-02-25T22:13:38.178Z,39.00
2018-02-25T22:16:06.716Z,39.40
2018-02-25T22:18:35.855Z,39.20
2018-02-25T22:21:04.258Z,39.10
2018-02-25T22:23:32.728Z,38.90
2018-02-25T22:26:01.120Z,39.30
2018-02-25T22:28:29.505Z,39.20
2018-02-25T22:30:57.922Z,38.90
2018-02-25T22:33:26.309Z,39.10
2018-02-25T22:35:54.678Z,38.90
2018-02-25T22:38:23.819Z,39.30
2018-02-25T22:40:52.187Z,39.30
2018-02-25T22:43:20.590Z,40.40
2018-02-25T22:45:48.965Z,39.40
2018-02-25T22:48:17.520Z,39.40
2018-02-25T22:50:45.892Z,39.20
2018-02-25T22:53:14.295Z,39.60
2018-02-25T22:55:42.902Z,39.40
2018-02-25T22:58:11.272Z,39.70
2018-02-25T23:00:39.682Z,40.00
2018-02-25T23:03:08.819Z,39.80
2018-02-25T23:05:37.453Z,39.80
2018-02-25T23:08:06.594Z,39.90
2018-02-25T23:10:34.980Z,39.90
2018-02-25T23:13:03.379Z,40.10
2018-02-25T23:15:31.755Z,40.10
2018-02-25T23:18:00.161Z,40.10
2018-02-25T23:20:28.639Z,40.00
2018-02-25T23:22:57.066Z,40.20
2018-02-25T23:25:25.442Z,40.30
2018-02-25T23:27:53.817Z,40.20
2018-02-25T23:30:22.213Z,40.30
2018-02-25T23:32:50.618Z,40.50
2018-02-25T23:35:19.016Z,40.40
2018-02-25T23:37:48.158Z,40.50
2018-02-25T23:40:16.749Z,40.40
2018-02-25T23:42:45.130Z,40.00
2018-02-25T23:45:13.541Z,40.00
2018-02-25T23:47:41.942Z,40.00
2018-02-25T23:50:11.087Z,39.80
2018-02-25T23:52:39.501Z,39.80
2018-02-25T23:55:07.910Z,40.10
2018-02-25T23:57:36.515Z,40.10
